Time;durP1;ratioP1;P1;durP2;ratioP2;P2;SDS_P1;SDS_P2;PMS_P1;PMS_P2;Temp;Humidity;BMP_temperature;BMP_pressure;BME280_temperature;BME280_humidity;BME280_pressure;Samples;Min_cycle;Max_cycle;Signal;HPM_P1;HPM_P2
2020/12/29 00:01:57;;;;;;;4.85;1.75;;;23.30;64.50;;;;;;4153485;28;20178;-49
2020/12/29 00:04:00;;;;;;;4.07;1.50;;;23.30;64.60;;;;;;4171605;28;20490;-51
2020/12/29 00:06:10;;;;;;;4.05;1.63;;;23.30;64.70;;;;;;4160940;28;20148;-52
2020/12/29 00:08:13;;;;;;;4.57;1.98;;;23.30;64.70;;;;;;4169359;28;20029;-55
2020/12/29 00:10:22;;;;;;;4.10;1.90;;;23.30;64.70;;;;;;4161039;28;20118;-54
2020/12/29 00:12:25;;;;;;;4.90;2.08;;;23.20;64.70;;;;;;4166845;28;20448;-51
2020/12/29 00:14:27;;;;;;;2.88;1.83;;;23.20;64.60;;;;;;4155421;28;20581;-51
2020/12/29 00:16:30;;;;;;;3.30;1.85;;;23.20;64.70;;;;;;4136966;28;20521;-56
2020/12/29 00:18:32;;;;;;;5.50;2.60;;;23.20;64.80;;;;;;4163050;28;20138;-56
2020/12/29 00:20:35;;;;;;;5.68;2.63;;;23.20;64.80;;;;;;4162617;28;20029;-56
2020/12/29 00:22:37;;;;;;;;;;;23.20;64.80;;;;;;4164012;28;20503;-56
2020/12/29 00:24:39;;;;;;;5.75;3.72;;;23.10;64.90;;;;;;4155177;28;19937;-57
2020/12/29 00:26:41;;;;;;;9.50;4.40;;;23.10;64.90;;;;;;4166300;28;20124;-53
2020/12/29 00:28:44;;;;;;;8.10;5.43;;;23.10;65.00;;;;;;4158850;28;20056;-52
2020/12/29 00:30:50;;;;;;;7.60;6.53;;;23.10;65.30;;;;;;4167441;28;20025;-58
2020/12/29 00:32:52;;;;;;;7.63;5.70;;;23.10;65.40;;;;;;4160023;28;20033;-55
2020/12/29 00:34:55;;;;;;;6.65;5.50;;;23.10;65.50;;;;;;4161588;28;20338;-52
2020/12/29 00:36:57;;;;;;;6.13;5.50;;;23.10;66.30;;;;;;4161605;28;20063;-52
2020/12/29 00:38:59;;;;;;;7.13;4.93;;;23.10;65.60;;;;;;4165935;28;20083;-51
2020/12/29 00:41:05;;;;;;;7.57;4.82;;;23.10;65.60;;;;;;4159499;28;20040;-52
2020/12/29 00:43:08;;;;;;;7.47;4.70;;;23.10;65.70;;;;;;4158778;28;20053;-52
2020/12/29 00:45:10;;;;;;;7.38;4.20;;;23.00;65.60;;;;;;4165207;28;20112;-54
2020/12/29 00:47:12;;;;;;;6.43;4.32;;;23.00;65.50;;;;;;4163693;28;20155;-53
2020/12/29 00:49:14;;;;;;;4.97;3.90;;;23.00;65.40;;;;;;4157396;28;20051;-53
2020/12/29 00:51:18;;;;;;;7.07;3.60;;;23.00;65.50;;;;;;4158235;28;20028;-55
2020/12/29 00:53:23;;;;;;;5.60;3.15;;;23.00;66.10;;;;;;4167451;28;20045;-54
2020/12/29 00:55:25;;;;;;;3.95;3.00;;;23.00;65.40;;;;;;4162642;28;20076;-55
2020/12/29 00:57:28;;;;;;;6.35;2.80;;;23.00;65.40;;;;;;4167477;28;20032;-56
2020/12/29 00:59:30;;;;;;;4.65;2.75;;;23.00;65.30;;;;;;4156745;28;20084;-54
2020/12/29 01:01:32;;;;;;;5.68;2.90;;;23.00;65.30;;;;;;4168030;28;20054;-51
2020/12/29 01:03:39;;;;;;;5.45;2.33;;;23.00;65.30;;;;;;4156025;28;20048;-53
2020/12/29 01:05:41;;;;;;;4.50;2.17;;;23.00;65.30;;;;;;4164977;28;20029;-55
2020/12/29 01:07:43;;;;;;;3.83;2.17;;;23.00;65.30;;;;;;4148182;28;20052;-54
2020/12/29 01:09:45;;;;;;;3.65;2.30;;;23.00;65.30;;;;;;4166608;28;20021;-54
2020/12/29 01:11:49;;;;;;;3.88;1.80;;;23.00;65.20;;;;;;4155901;28;20026;-55
2020/12/29 01:13:51;;;;;;;3.08;1.90;;;23.00;65.20;;;;;;4168051;28;20428;-56
2020/12/29 01:15:57;;;;;;;2.38;1.70;;;22.90;65.30;;;;;;4157081;28;21321;-51
2020/12/29 01:17:59;;;;;;;3.22;2.00;;;23.00;65.30;;;;;;4157534;28;20159;-56
2020/12/29 01:20:02;;;;;;;2.60;1.88;;;23.00;65.40;;;;;;4156100;28;20045;-54
2020/12/29 01:22:04;;;;;;;2.35;1.83;;;22.90;65.40;;;;;;4163232;28;20804;-50
2020/12/29 01:24:06;;;;;;;3.15;1.60;;;23.00;65.50;;;;;;4162258;28;20037;-56
2020/12/29 01:26:09;;;;;;;4.03;1.80;;;22.90;65.30;;;;;;4165476;28;20056;-56
2020/12/29 01:28:11;;;;;;;4.82;1.80;;;23.00;65.40;;;;;;4173176;28;20049;-52
2020/12/29 01:30:14;;;;;;;4.32;1.73;;;23.00;65.30;;;;;;4171089;28;20772;-56
2020/12/29 01:32:16;;;;;;;2.75;1.70;;;22.90;65.30;;;;;;4164535;28;20030;-56
2020/12/29 01:34:18;;;;;;;2.50;1.40;;;22.90;65.30;;;;;;4170611;28;20102;-57
2020/12/29 01:36:21;;;;;;;3.85;1.85;;;22.90;65.30;;;;;;4167347;28;20362;-57
2020/12/29 01:38:23;;;;;;;3.03;1.75;;;22.90;65.30;;;;;;4160449;28;20541;-56
2020/12/29 01:40:25;;;;;;;3.08;1.75;;;22.90;65.40;;;;;;4163439;28;20399;-55
2020/12/29 01:42:28;;;;;;;2.47;1.50;;;22.90;65.30;;;;;;4164792;28;20098;-55
2020/12/29 01:44:30;;;;;;;3.80;1.48;;;22.90;65.30;;;;;;4163866;28;20106;-56
2020/12/29 01:46:32;;;;;;;3.05;1.58;;;22.90;65.90;;;;;;4165172;28;20044;-56
2020/12/29 01:48:34;;;;;;;2.95;1.70;;;22.90;65.20;;;;;;4163611;28;20817;-56
2020/12/29 01:50:36;;;;;;;2.53;1.70;;;22.90;65.20;;;;;;4161634;28;20486;-57
2020/12/29 01:52:39;;;;;;;1.98;1.40;;;22.90;65.20;;;;;;4162603;28;20060;-50
2020/12/29 01:54:45;;;;;;;2.47;1.50;;;22.90;65.20;;;;;;4160432;28;20025;-54
2020/12/29 01:56:47;;;;;;;1.92;1.40;;;22.90;65.30;;;;;;4174715;28;20029;-58
2020/12/29 01:58:51;;;;;;;2.72;1.73;;;22.80;65.20;;;;;;4164465;28;20514;-57
2020/12/29 02:00:54;;;;;;;2.10;1.58;;;22.80;65.80;;;;;;4170447;28;20035;-56
2020/12/29 02:02:58;;;;;;;2.33;1.40;;;22.80;65.20;;;;;;4164081;28;20060;-54
2020/12/29 02:05:04;;;;;;;1.45;1.35;;;22.80;65.20;;;;;;4166780;28;20044;-56
2020/12/29 02:07:06;;;;;;;3.00;1.50;;;22.80;65.20;;;;;;4165106;28;20479;-52
2020/12/29 02:09:09;;;;;;;1.52;1.30;;;22.80;65.20;;;;;;4162322;28;20091;-52
2020/12/29 02:11:12;;;;;;;2.35;1.40;;;22.80;65.20;;;;;;4165069;28;20029;-54
2020/12/29 02:13:14;;;;;;;2.03;1.40;;;22.80;65.20;;;;;;4156531;28;20068;-54
2020/12/29 02:15:17;;;;;;;1.77;1.52;;;22.80;65.20;;;;;;4167206;28;20057;-55
2020/12/29 02:17:19;;;;;;;3.85;1.58;;;22.70;65.10;;;;;;4166967;28;20083;-50
2020/12/29 02:19:21;;;;;;;1.63;1.50;;;22.80;65.20;;;;;;4161688;28;20044;-54
2020/12/29 02:21:23;;;;;;;2.95;1.73;;;22.80;65.20;;;;;;4165988;28;20474;-52
2020/12/29 02:23:26;;;;;;;3.60;1.50;;;22.80;65.20;;;;;;4170721;28;20069;-52
2020/12/29 02:25:28;;;;;;;2.45;1.60;;;22.70;65.10;;;;;;4160126;28;20071;-50
2020/12/29 02:27:33;;;;;;;1.83;1.23;;;22.70;65.20;;;;;;4173964;28;20030;-54
2020/12/29 02:29:35;;;;;;;2.40;1.52;;;22.80;65.20;;;;;;4160299;28;20495;-56
2020/12/29 02:31:37;;;;;;;2.38;1.58;;;22.80;65.20;;;;;;4161177;28;20049;-56
2020/12/29 02:33:41;;;;;;;2.38;1.45;;;22.80;65.20;;;;;;4162957;28;20460;-56
2020/12/29 02:35:43;;;;;;;1.83;1.30;;;22.80;65.20;;;;;;4164821;28;20115;-55
2020/12/29 02:37:46;;;;;;;2.58;1.40;;;22.70;65.10;;;;;;4165007;28;20033;-56
2020/12/29 02:39:55;;;;;;;3.97;1.30;;;22.70;65.10;;;;;;4160975;28;20044;-54
2020/12/29 02:41:57;;;;;;;2.05;1.42;;;22.70;65.10;;;;;;4164258;28;20034;-55
2020/12/29 02:43:59;;;;;;;2.35;1.60;;;22.70;65.10;;;;;;4163906;28;20093;-53
2020/12/29 02:46:01;;;;;;;2.28;1.38;;;22.70;65.10;;;;;;4161223;28;20049;-52
2020/12/29 02:48:03;;;;;;;2.42;1.50;;;22.70;65.10;;;;;;4158235;28;20057;-54
2020/12/29 02:50:07;;;;;;;2.58;1.50;;;22.70;65.00;;;;;;4163677;28;20045;-55
2020/12/29 02:52:09;;;;;;;;;;;22.70;65.10;;;;;;4156126;28;20580;-54
2020/12/29 02:54:15;;;;;;;1.60;1.40;;;22.70;65.10;;;;;;4164952;28;20063;-54
2020/12/29 02:56:20;;;;;;;2.03;1.42;;;22.70;65.10;;;;;;4166523;28;20091;-55
2020/12/29 02:58:32;;;;;;;1.85;1.40;;;22.70;65.10;;;;;;4163531;28;20028;-59
2020/12/29 03:00:36;;;;;;;2.35;1.45;;;22.70;65.00;;;;;;4162691;28;20578;-49
2020/12/29 03:02:41;;;;;;;1.85;1.48;;;22.70;65.00;;;;;;4173525;28;20052;-54
2020/12/29 03:04:44;;;;;;;2.33;1.40;;;22.70;65.00;;;;;;4160948;28;20099;-55
2020/12/29 03:06:46;;;;;;;1.65;1.33;;;22.70;65.10;;;;;;4163827;28;20029;-55
2020/12/29 03:08:48;;;;;;;1.50;1.30;;;;;;;;;;4161330;28;20021;-55
2020/12/29 03:10:50;;;;;;;2.35;1.38;;;;;;;;;;4160821;28;20589;-55
2020/12/29 03:12:53;;;;;;;2.40;1.30;;;22.70;65.00;;;;;;4156032;28;20067;-58
2020/12/29 03:14:55;;;;;;;1.67;1.55;;;22.70;65.00;;;;;;4184456;28;20052;-55
2020/12/29 03:16:57;;;;;;;2.30;1.40;;;;;;;;;;4157716;28;20041;-56
2020/12/29 03:19:01;;;;;;;1.73;1.48;;;22.70;64.90;;;;;;4163206;28;20040;-55
2020/12/29 03:21:03;;;;;;;2.05;1.20;;;22.70;65.10;;;;;;4163423;28;20108;-53
2020/12/29 03:23:37;;;;;;;2.50;1.40;;;22.60;65.00;;;;;;4159962;28;20040;-57
2020/12/29 03:25:39;;;;;;;2.42;1.73;;;22.70;65.10;;;;;;4140334;28;20136;-55
2020/12/29 03:27:41;;;;;;;2.08;1.55;;;22.60;65.00;;;;;;4164773;28;20025;-59
2020/12/29 03:29:43;;;;;;;3.67;1.40;;;22.70;65.10;;;;;;4161961;28;20025;-50
2020/12/29 03:31:51;;;;;;;1.80;1.30;;;22.70;65.10;;;;;;4163857;28;20404;-54
2020/12/29 03:33:53;;;;;;;3.28;1.10;;;22.70;65.20;;;;;;4157026;28;20044;-50
2020/12/29 03:35:55;;;;;;;2.47;1.30;;;22.70;65.30;;;;;;4160617;28;20025;-49
2020/12/29 03:38:00;;;;;;;3.00;1.40;;;22.70;65.40;;;;;;4154091;28;20122;-51
2020/12/29 03:40:04;;;;;;;8.23;1.80;;;22.70;65.60;;;;;;4155550;28;20068;-49
2020/12/29 03:42:06;;;;;;;10.93;2.08;;;22.70;65.60;;;;;;4158179;28;20080;-51
2020/12/29 03:44:08;;;;;;;5.28;1.50;;;22.80;65.60;;;;;;4154136;28;20049;-52
2020/12/29 03:46:11;;;;;;;11.93;1.65;;;22.80;65.40;;;;;;4162967;28;20044;-58
2020/12/29 03:48:16;;;;;;;5.60;1.55;;;22.80;66.40;;;;;;4160941;28;20131;-57
2020/12/29 03:50:18;;;;;;;5.13;1.85;;;;;;;;;;4155333;28;20056;-59
2020/12/29 03:52:20;;;;;;;4.05;1.33;;;;;;;;;;4167152;28;20368;-56
2020/12/29 03:54:22;;;;;;;16.27;2.10;;;22.80;65.80;;;;;;4159180;28;20083;-60
2020/12/29 03:56:24;;;;;;;6.75;1.30;;;22.90;66.00;;;;;;4158753;28;20183;-57
2020/12/29 03:58:29;;;;;;;2.35;1.38;;;22.90;66.00;;;;;;4160639;28;20020;-61
2020/12/29 04:00:32;;;;;;;5.57;1.40;;;22.90;65.90;;;;;;4158263;28;20465;-62
2020/12/29 04:02:37;;;;;;;4.07;1.13;;;22.90;65.90;;;;;;4158895;28;20052;-60
2020/12/29 04:04:39;;;;;;;4.97;1.50;;;23.00;66.00;;;;;;4161427;28;20381;-59
2020/12/29 04:06:41;;;;;;;3.83;1.40;;;23.00;65.90;;;;;;4160049;28;20423;-58
2020/12/29 04:08:43;;;;;;;3.55;1.08;;;23.00;66.00;;;;;;4155077;28;20025;-59
2020/12/29 04:10:45;;;;;;;1.92;1.05;;;23.00;65.80;;;;;;4158871;28;20499;-61
2020/12/29 04:12:48;;;;;;;4.20;1.40;;;23.00;65.80;;;;;;4160058;28;20090;-60
2020/12/29 04:14:50;;;;;;;5.50;1.30;;;23.00;65.70;;;;;;4158535;28;20469;-57
2020/12/29 04:16:54;;;;;;;2.80;1.25;;;23.00;66.00;;;;;;4159571;28;20024;-55
2020/12/29 04:18:56;;;;;;;4.47;0.93;;;23.00;66.00;;;;;;4167235;28;20028;-55
2020/12/29 04:20:58;;;;;;;6.20;1.55;;;23.00;66.00;;;;;;4168844;28;20044;-58
2020/12/29 04:23:00;;;;;;;19.63;1.83;;;23.10;66.10;;;;;;4159570;28;20110;-63
2020/12/29 04:25:04;;;;;;;2.97;1.25;;;23.10;65.90;;;;;;4167900;28;20133;-59
2020/12/29 04:27:07;;;;;;;5.90;1.67;;;23.10;66.00;;;;;;4158260;28;20047;-59
2020/12/29 04:29:09;;;;;;;1.40;1.10;;;23.10;65.90;;;;;;4163832;28;20041;-56
2020/12/29 04:31:12;;;;;;;2.83;1.25;;;;;;;;;;4159301;28;20100;-57
2020/12/29 04:33:14;;;;;;;3.70;1.27;;;;;;;;;;4161596;28;20451;-53
2020/12/29 04:35:16;;;;;;;2.53;1.23;;;;;;;;;;4160359;28;20128;-59
2020/12/29 04:37:18;;;;;;;4.05;0.85;;;23.10;65.90;;;;;;4164321;28;20049;-58
2020/12/29 04:39:21;;;;;;;9.38;1.40;;;23.20;65.90;;;;;;4155391;28;20047;-59
2020/12/29 04:41:23;;;;;;;2.17;1.10;;;;;;;;;;4162482;28;20037;-61
2020/12/29 04:43:26;;;;;;;3.85;1.25;;;;;;;;;;4157202;28;20068;-59
2020/12/29 04:45:28;;;;;;;0.98;0.93;;;;;;;;;;4158476;28;20076;-59
2020/12/29 04:47:30;;;;;;;4.15;1.10;;;;;;;;;;4161302;28;20045;-55
2020/12/29 04:49:33;;;;;;;3.90;1.10;;;;;;;;;;4158921;28;20069;-58
2020/12/29 04:51:35;;;;;;;3.30;1.25;;;;;;;;;;4161556;28;20041;-61
2020/12/29 04:53:37;;;;;;;3.55;0.90;;;;;;;;;;4159183;28;20462;-58
2020/12/29 04:55:42;;;;;;;8.50;1.43;;;;;;;;;;4167300;28;20495;-58
2020/12/29 04:57:45;;;;;;;2.80;1.00;;;;;;;;;;4161202;28;20019;-59
2020/12/29 04:59:46;;;;;;;;;;;;;;;;;;4162162;28;20399;-57
2020/12/29 05:01:48;;;;;;;1.85;1.10;;;;;;;;;;4160873;28;19916;-53
2020/12/29 05:03:50;;;;;;;3.97;1.20;;;;;;;;;;4165915;28;20596;-58
2020/12/29 05:05:53;;;;;;;2.85;1.40;;;;;;;;;;4165827;28;20120;-58
2020/12/29 05:07:56;;;;;;;4.93;1.20;;;;;;;;;;4162028;28;20370;-56
2020/12/29 05:10:08;;;;;;;3.10;1.45;;;;;;;;;;4168983;28;20250;-51
2020/12/29 05:12:10;;;;;;;3.83;1.40;;;;;;;;;;4160971;28;20040;-55
2020/12/29 05:14:12;;;;;;;1.50;0.93;;;;;;;;;;4162201;28;20048;-57
2020/12/29 05:16:14;;;;;;;2.47;1.05;;;;;;;;;;4163100;28;20143;-64
2020/12/29 05:18:16;;;;;;;3.35;1.00;;;;;;;;;;4158455;28;20533;-53
2020/12/29 05:20:33;;;;;;;2.50;1.38;;;;;;;;;;4159244;28;20052;-48
2020/12/29 05:22:39;;;;;;;1.95;1.10;;;;;;;;;;4171823;28;20056;-55
2020/12/29 05:24:46;;;;;;;3.25;1.35;;;;;;;;;;4158878;28;20029;-51
2020/12/29 05:26:55;;;;;;;2.10;1.27;;;;;;;;;;4159620;28;20119;-58
2020/12/29 05:28:57;;;;;;;3.30;1.33;;;;;;;;;;4147596;28;20482;-53
2020/12/29 05:31:01;;;;;;;4.28;1.33;;;;;;;;;;4155405;28;20055;-55
2020/12/29 05:33:02;;;;;;;;;;;;;;;;;;4134510;28;20577;-50
2020/12/29 05:35:09;;;;;;;1.85;1.33;;;;;;;;;;4139842;28;20348;-58
2020/12/29 05:37:15;;;;;;;3.15;1.30;;;;;;;;;;4137575;28;20060;-58
2020/12/29 05:39:18;;;;;;;2.05;1.30;;;;;;;;;;4139545;28;20446;-57
2020/12/29 05:41:22;;;;;;;4.43;1.20;;;;;;;;;;4139067;28;20128;-58
2020/12/29 05:43:34;;;;;;;2.58;1.13;;;;;;;;;;4137652;28;20067;-58
2020/12/29 05:45:35;;;;;;;1.75;1.38;;;;;;;;;;4141312;28;20052;-56
2020/12/29 05:47:37;;;;;;;1.77;1.20;;;;;;;;;;4139445;28;20385;-59
2020/12/29 05:49:48;;;;;;;3.22;1.33;;;;;;;;;;4142104;28;20046;-59
2020/12/29 05:51:59;;;;;;;3.10;1.30;;;;;;;;;;4138613;28;20025;-59
2020/12/29 05:54:07;;;;;;;1.33;1.08;;;;;;;;;;4142171;28;20813;-57
2020/12/29 05:56:09;;;;;;;2.70;1.40;;;;;;;;;;4138360;28;20033;-54
2020/12/29 05:58:12;;;;;;;2.38;1.38;;;;;;;;;;4139637;28;20100;-58
2020/12/29 06:00:16;;;;;;;1.52;1.10;;;;;;;;;;4139870;28;20033;-59
2020/12/29 06:02:21;;;;;;;3.30;1.15;;;;;;;;;;4138151;28;20389;-59
2020/12/29 06:04:23;;;;;;;5.07;1.67;;;;;;;;;;4135162;28;20705;-55
2020/12/29 06:06:27;;;;;;;2.75;1.23;;;;;;;;;;4139684;28;20041;-50
2020/12/29 06:08:30;;;;;;;4.10;1.25;;;;;;;;;;4134559;28;20044;-52
2020/12/29 06:10:32;;;;;;;;;;;;;;;;;;4121797;28;20041;-49
2020/12/29 06:12:35;;;;;;;2.75;1.50;;;;;;;;;;4138194;28;19909;-51
2020/12/29 06:14:55;;;;;;;5.97;1.58;;;;;;;;;;4141029;28;20449;-48
2020/12/29 06:16:57;;;;;;;6.10;1.58;;;;;;;;;;4106897;28;20045;-49
2020/12/29 06:19:02;;;;;;;5.05;1.90;;;;;;;;;;4129048;28;20111;-51
2020/12/29 06:21:08;;;;;;;5.57;1.70;;;;;;;;;;4144623;28;20029;-52
2020/12/29 06:23:11;;;;;;;4.75;1.70;;;;;;;;;;4129051;28;20098;-57
2020/12/29 06:25:13;;;;;;;;;;;;;;;;;;4140330;28;20041;-52
2020/12/29 06:27:15;;;;;;;7.15;2.20;;;;;;;;;;4141614;28;19917;-54
2020/12/29 06:29:21;;;;;;;4.63;1.80;;;;;;;;;;4137550;28;20471;-49
2020/12/29 06:31:29;;;;;;;3.42;1.90;;;;;;;;;;4136601;28;20467;-52
2020/12/29 06:33:32;;;;;;;4.70;1.67;;;;;;;;;;4139717;28;20744;-52
2020/12/29 06:35:34;;;;;;;7.32;2.42;;;;;;;;;;4137479;28;20056;-53
2020/12/29 06:37:55;;;;;;;5.47;2.00;;;;;;;;;;4138386;28;20042;-48
2020/12/29 06:40:05;;;;;;;6.22;1.95;;;;;;;;;;4137463;28;20048;-51
2020/12/29 06:42:10;;;;;;;4.18;1.92;;;;;;;;;;4136670;28;20040;-52
2020/12/29 06:44:13;;;;;;;13.43;2.65;;;;;;;;;;4138540;28;20524;-52
2020/12/29 06:46:16;;;;;;;5.68;1.90;;;23.30;65.70;;;;;;4125079;28;21419;-58
2020/12/29 06:48:20;;;;;;;8.73;2.30;;;23.70;65.30;;;;;;4143609;28;20164;-55
2020/12/29 06:50:44;;;;;;;7.70;1.83;;;23.60;65.40;;;;;;4140032;28;20457;-52
2020/12/29 06:52:54;;;;;;;5.55;2.00;;;23.60;65.50;;;;;;4140844;28;20498;-56
2020/12/29 06:54:58;;;;;;;8.52;1.83;;;23.60;65.50;;;;;;4115071;28;20514;-53
2020/12/29 06:57:00;;;;;;;6.13;2.42;;;23.60;66.10;;;;;;4139119;28;20383;-57
2020/12/29 06:59:03;;;;;;;6.18;1.60;;;23.60;65.50;;;;;;4138286;28;20083;-58
2020/12/29 07:01:25;;;;;;;5.30;2.10;;;23.60;65.30;;;;;;4138126;28;20630;-57
2020/12/29 07:03:34;;;;;;;5.57;1.73;;;23.60;65.20;;;;;;4138325;28;20052;-55
2020/12/29 07:05:38;;;;;;;4.43;1.90;;;23.60;65.30;;;;;;4134515;28;20055;-52
2020/12/29 07:08:03;;;;;;;5.68;1.77;;;23.60;65.40;;;;;;4137765;28;20042;-55
2020/12/29 07:10:12;;;;;;;4.43;2.13;;;23.50;65.20;;;;;;4141007;28;20130;-52
2020/12/29 07:12:18;;;;;;;4.70;1.95;;;23.60;65.30;;;;;;4143654;28;20520;-57
2020/12/29 07:14:21;;;;;;;2.92;1.50;;;23.50;65.20;;;;;;4143560;28;20428;-58
2020/12/29 07:16:26;;;;;;;;;;;23.50;65.10;;;;;;4136241;28;20040;-55
2020/12/29 07:18:29;;;;;;;5.47;2.08;;;23.50;65.30;;;;;;4142927;28;19913;-56
2020/12/29 07:20:34;;;;;;;;;;;23.50;65.30;;;;;;4140015;28;20087;-57
2020/12/29 07:22:39;;;;;;;5.25;2.00;;;23.60;65.30;;;;;;4139690;28;20270;-57
2020/12/29 07:24:43;;;;;;;5.10;1.80;;;23.50;65.20;;;;;;4141000;28;20127;-51
2020/12/29 07:26:45;;;;;;;6.43;1.92;;;23.50;65.10;;;;;;4143202;28;20457;-55
2020/12/29 07:28:54;;;;;;;4.75;1.85;;;23.60;64.90;;;;;;4139002;28;20475;-57
2020/12/29 07:30:59;;;;;;;5.57;2.00;;;23.50;64.80;;;;;;4141764;28;20507;-57
2020/12/29 07:33:06;;;;;;;5.70;1.92;;;23.50;64.80;;;;;;4158875;28;20021;-50
2020/12/29 07:35:08;;;;;;;5.60;1.75;;;23.50;65.00;;;;;;4141209;28;20063;-50
2020/12/29 07:37:11;;;;;;;7.55;2.05;;;23.50;65.00;;;;;;4142857;28;20052;-53
2020/12/29 07:39:17;;;;;;;5.07;1.80;;;23.50;65.20;;;;;;4137383;28;20028;-50
2020/12/29 07:41:20;;;;;;;12.85;1.90;;;23.50;65.20;;;;;;4139962;28;20278;-55
2020/12/29 07:43:22;;;;;;;5.10;2.05;;;23.50;65.40;;;;;;4138858;28;20152;-52
2020/12/29 07:45:24;;;;;;;5.18;1.65;;;23.50;65.60;;;;;;4141536;28;20071;-57
2020/12/29 07:47:26;;;;;;;3.33;1.55;;;23.50;65.60;;;;;;4139675;28;20052;-50
2020/12/29 07:49:29;;;;;;;3.55;1.48;;;23.50;65.70;;;;;;4140960;28;20045;-56
2020/12/29 07:51:45;;;;;;;3.50;1.88;;;23.50;65.70;;;;;;4147330;28;20064;-53
2020/12/29 07:53:47;;;;;;;4.68;1.48;;;23.50;65.70;;;;;;4143798;28;20036;-46
2020/12/29 07:55:51;;;;;;;3.70;1.45;;;23.50;65.80;;;;;;4144797;28;20041;-52
2020/12/29 07:57:54;;;;;;;3.13;1.00;;;23.50;65.70;;;;;;4150602;28;20522;-55
2020/12/29 08:00:12;;;;;;;3.00;1.38;;;23.50;65.80;;;;;;4164850;28;20075;-49
2020/12/29 08:02:14;;;;;;;3.10;1.08;;;23.60;65.80;;;;;;4143042;28;20061;-56
2020/12/29 08:04:27;;;;;;;3.42;1.38;;;23.60;65.70;;;;;;4141205;28;20478;-55
2020/12/29 08:06:31;;;;;;;3.65;1.10;;;23.60;65.80;;;;;;4142347;28;21006;-46
2020/12/29 08:08:33;;;;;;;5.35;1.10;;;23.60;66.40;;;;;;4139484;28;20732;-48
2020/12/29 08:10:41;;;;;;;2.55;1.00;;;23.60;65.70;;;;;;4136140;28;20554;-53
2020/12/29 08:12:43;;;;;;;4.70;1.30;;;23.70;65.60;;;;;;4143405;28;20135;-48
2020/12/29 08:14:46;;;;;;;2.42;1.30;;;23.70;65.60;;;;;;4138156;28;20393;-54
2020/12/29 08:16:48;;;;;;;3.50;1.02;;;23.70;65.70;;;;;;4138801;28;20105;-58
2020/12/29 08:19:06;;;;;;;2.58;0.90;;;23.70;65.50;;;;;;4135749;28;20029;-46
2020/12/29 08:21:11;;;;;;;2.40;1.10;;;23.70;65.50;;;;;;4139868;28;20526;-57
2020/12/29 08:23:29;;;;;;;6.60;1.08;;;23.70;65.60;;;;;;4140252;28;20578;-52
2020/12/29 08:25:33;;;;;;;2.28;0.85;;;23.70;65.70;;;;;;4130799;28;20045;-54
2020/12/29 08:27:35;;;;;;;3.05;0.98;;;23.70;65.60;;;;;;4140187;28;20242;-55
2020/12/29 08:29:38;;;;;;;2.05;0.93;;;23.70;65.60;;;;;;4140392;28;20025;-51
2020/12/29 08:31:41;;;;;;;1.90;0.93;;;23.70;65.70;;;;;;4141268;28;20503;-52
2020/12/29 08:33:44;;;;;;;1.75;0.85;;;23.70;65.60;;;;;;4138813;28;20033;-53
2020/12/29 08:35:52;;;;;;;1.67;0.85;;;23.70;65.50;;;;;;4137480;28;20174;-47
2020/12/29 08:38:12;;;;;;;3.50;1.02;;;23.80;65.50;;;;;;4127614;28;20045;-50
2020/12/29 08:40:18;;;;;;;6.07;0.85;;;23.70;65.50;;;;;;4132975;28;20041;-50
2020/12/29 08:42:22;;;;;;;2.53;0.77;;;23.80;65.50;;;;;;4133665;28;20040;-48
2020/12/29 08:44:29;;;;;;;1.08;0.70;;;23.80;65.50;;;;;;4135647;28;20068;-47
2020/12/29 08:46:35;;;;;;;1.45;0.70;;;23.80;65.50;;;;;;4135643;28;21367;-56
2020/12/29 08:48:39;;;;;;;2.13;0.80;;;23.80;65.50;;;;;;4133168;28;20447;-54
2020/12/29 08:50:42;;;;;;;3.83;0.90;;;23.80;65.60;;;;;;4137385;28;20029;-52
2020/12/29 08:52:44;;;;;;;3.60;1.08;;;23.80;65.50;;;;;;4134263;28;20152;-55
2020/12/29 08:54:46;;;;;;;2.40;0.98;;;23.80;65.50;;;;;;4131861;28;20033;-47
2020/12/29 08:56:49;;;;;;;2.70;0.77;;;23.80;65.60;;;;;;4136696;28;20023;-49
2020/12/29 08:58:51;;;;;;;1.90;1.08;;;23.80;65.50;;;;;;4138924;28;20147;-52
2020/12/29 09:00:54;;;;;;;5.47;1.05;;;23.80;65.50;;;;;;4130710;28;21200;-49
2020/12/29 09:02:57;;;;;;;1.38;0.80;;;23.90;65.50;;;;;;4139056;28;21482;-51
2020/12/29 09:04:59;;;;;;;1.40;0.73;;;23.80;65.50;;;;;;4136399;28;20638;-51
2020/12/29 09:07:06;;;;;;;1.88;0.88;;;23.80;65.50;;;;;;4127694;28;20513;-48
2020/12/29 09:09:08;;;;;;;4.00;0.85;;;23.90;65.50;;;;;;4136940;28;20828;-47
2020/12/29 09:11:14;;;;;;;3.72;0.90;;;23.80;65.50;;;;;;4133892;28;20105;-48
2020/12/29 09:13:16;;;;;;;2.58;1.10;;;23.90;65.50;;;;;;4135216;28;20173;-48
2020/12/29 09:15:27;;;;;;;3.53;1.17;;;23.90;65.50;;;;;;4132748;28;20041;-48
2020/12/29 09:17:37;;;;;;;4.30;1.05;;;23.90;65.40;;;;;;4131953;28;20136;-53
2020/12/29 09:19:39;;;;;;;1.58;0.80;;;23.90;65.40;;;;;;4128592;28;20125;-49
2020/12/29 09:21:41;;;;;;;3.28;0.95;;;23.90;65.40;;;;;;4134944;28;20573;-53
2020/12/29 09:23:43;;;;;;;3.80;0.90;;;23.80;65.20;;;;;;4130005;28;20938;-51
2020/12/29 09:25:46;;;;;;;2.60;1.35;;;23.80;65.20;;;;;;4134015;28;20135;-49
2020/12/29 09:27:48;;;;;;;3.75;1.20;;;23.80;65.80;;;;;;4124667;28;20638;-49
2020/12/29 09:29:50;;;;;;;5.30;1.10;;;23.80;65.30;;;;;;4136518;28;20409;-49
2020/12/29 09:31:54;;;;;;;3.80;1.00;;;23.80;65.50;;;;;;4130839;28;20069;-52
2020/12/29 09:33:57;;;;;;;4.03;0.95;;;23.80;65.60;;;;;;4133298;28;20099;-49
2020/12/29 09:36:02;;;;;;;1.67;0.98;;;23.80;65.60;;;;;;4134013;28;20467;-52
2020/12/29 09:38:05;;;;;;;2.67;1.10;;;23.80;65.60;;;;;;4129038;28;20049;-48
2020/12/29 09:40:07;;;;;;;2.78;0.90;;;23.80;65.70;;;;;;4131984;28;20040;-49
2020/12/29 09:42:09;;;;;;;1.95;0.93;;;23.80;65.70;;;;;;4136020;28;20409;-49
2020/12/29 09:44:11;;;;;;;1.65;0.73;;;23.70;65.80;;;;;;4132483;28;20063;-52
2020/12/29 09:46:14;;;;;;;1.88;1.20;;;23.80;65.80;;;;;;4137240;28;20051;-49
2020/12/29 09:48:17;;;;;;;1.58;1.10;;;23.70;65.90;;;;;;4136424;28;20029;-49
2020/12/29 09:50:20;;;;;;;3.35;0.98;;;23.70;65.90;;;;;;4133224;28;20353;-53
2020/12/29 09:52:22;;;;;;;1.67;0.80;;;23.70;65.90;;;;;;4139315;28;20461;-49
2020/12/29 09:54:25;;;;;;;3.08;1.13;;;23.70;65.80;;;;;;4139544;28;20036;-51
2020/12/29 09:56:28;;;;;;;2.30;1.10;;;23.70;65.80;;;;;;4132255;28;20037;-54
2020/12/29 09:58:31;;;;;;;8.02;1.35;;;23.70;66.00;;;;;;4133171;28;20134;-48
2020/12/29 10:00:33;;;;;;;2.28;0.90;;;23.70;66.10;;;;;;4139138;28;20883;-47
2020/12/29 10:02:35;;;;;;;2.10;0.90;;;23.70;66.10;;;;;;4136960;28;20071;-52
2020/12/29 10:04:39;;;;;;;8.98;1.38;;;23.70;66.00;;;;;;4140837;28;20127;-49
2020/12/29 10:06:40;;;;;;;;;;;23.70;66.00;;;;;;4135834;28;20386;-48
2020/12/29 10:08:43;;;;;;;9.05;1.45;;;23.80;66.20;;;;;;4142060;28;20290;-48
2020/12/29 10:10:45;;;;;;;6.57;0.98;;;23.80;66.20;;;;;;4135958;28;20490;-53
2020/12/29 10:12:48;;;;;;;19.00;2.00;;;23.80;66.20;;;;;;4138215;28;20071;-48
2020/12/29 10:14:52;;;;;;;12.63;1.77;;;23.80;66.30;;;;;;4141334;28;20021;-56
2020/12/29 10:17:01;;;;;;;10.27;1.88;;;23.80;66.30;;;;;;4141811;28;20914;-51
2020/12/29 10:19:06;;;;;;;12.25;2.45;;;23.80;66.20;;;;;;4135674;28;20080;-51
2020/12/29 10:21:08;;;;;;;30.20;3.03;;;23.80;66.10;;;;;;4129475;28;20098;-54
2020/12/29 10:23:14;;;;;;;13.90;1.60;;;23.80;66.20;;;;;;4142862;28;20085;-51
2020/12/29 10:25:16;;;;;;;10.95;1.73;;;23.80;66.10;;;;;;4138594;28;20056;-56
2020/12/29 10:27:18;;;;;;;4.53;1.40;;;23.80;66.00;;;;;;4140776;28;20078;-50
2020/12/29 10:29:21;;;;;;;21.42;2.47;;;23.80;66.00;;;;;;4136444;28;20267;-46
2020/12/29 10:31:23;;;;;;;18.43;1.63;;;23.80;66.10;;;;;;4141245;28;20044;-51
2020/12/29 10:33:25;;;;;;;12.82;1.60;;;23.80;66.30;;;;;;4138933;28;20702;-54
2020/12/29 10:35:27;;;;;;;19.50;1.88;;;23.80;66.30;;;;;;4138770;28;20544;-46
2020/12/29 10:37:29;;;;;;;12.97;1.80;;;23.80;66.30;;;;;;4142828;28;20152;-52
2020/12/29 10:39:32;;;;;;;15.02;1.85;;;23.80;66.40;;;;;;4135410;28;20402;-62
2020/12/29 10:41:35;;;;;;;15.18;2.00;;;23.80;66.40;;;;;;4144223;28;20174;-48
2020/12/29 10:43:37;;;;;;;18.35;2.28;;;23.80;66.40;;;;;;4139932;28;21682;-46
2020/12/29 10:45:40;;;;;;;14.73;1.85;;;23.80;66.50;;;;;;4143125;28;20112;-50
2020/12/29 10:47:42;;;;;;;14.18;1.95;;;23.80;66.50;;;;;;4131837;28;20103;-49
2020/12/29 10:49:44;;;;;;;25.33;2.08;;;23.80;66.40;;;;;;4136733;28;20123;-48
2020/12/29 10:51:48;;;;;;;7.18;1.50;;;23.80;66.50;;;;;;4140133;28;20134;-50
2020/12/29 10:53:51;;;;;;;17.30;1.88;;;23.80;66.50;;;;;;4142022;28;21115;-56
2020/12/29 10:55:56;;;;;;;10.23;1.45;;;23.80;66.50;;;;;;4136667;28;20041;-55
2020/12/29 10:57:58;;;;;;;8.90;1.70;;;23.80;66.50;;;;;;4142055;28;20220;-50
2020/12/29 11:00:00;;;;;;;14.93;2.25;;;23.80;66.40;;;;;;4138710;28;20044;-48
2020/12/29 11:02:04;;;;;;;10.85;1.90;;;23.80;66.40;;;;;;4138924;28;20118;-51
2020/12/29 11:04:05;;;;;;;;;;;23.80;66.40;;;;;;4142522;28;20165;-47
2020/12/29 11:06:20;;;;;;;7.03;1.40;;;23.70;66.40;;;;;;4136509;28;21573;-48